Time;durP1;ratioP1;P1;durP2;ratioP2;P2;SDS_P1;SDS_P2;PMS_P1;PMS_P2;Temp;Humidity;BMP_temperature;BMP_pressure;BME280_temperature;BME280_humidity;BME280_pressure;Samples;Min_cycle;Max_cycle;Signal;HPM_P1;HPM_P2
2024/01/28 00:01:48;;;;;;;47.43;19.83;;;;;;;;;;5048822;28;20307;-64
2024/01/28 00:04:15;;;;;;;45.33;17.73;;;;;;;;;;5048642;28;20283;-64
2024/01/28 00:06:41;;;;;;;37.23;18.80;;;;;;;;;;5048657;28;20806;-65
2024/01/28 00:09:07;;;;;;;44.10;20.23;;;;;;;;;;5048828;28;20654;-64
2024/01/28 00:11:33;;;;;;;36.47;17.93;;;;;;;;;;5048800;28;20279;-64
2024/01/28 00:13:59;;;;;;;41.80;19.47;;;;;;;;;;5048551;28;20287;-65
2024/01/28 00:16:25;;;;;;;41.17;18.87;;;;;;;;;;5048079;28;20704;-64
2024/01/28 00:18:57;;;;;;;49.13;20.53;;;;;;;;;;5048871;28;20275;-64
2024/01/28 00:21:24;;;;;;;48.22;20.35;;;;;;;;;;5048456;28;20545;-65
2024/01/28 00:23:50;;;;;;;48.33;21.60;;;;;;;;;;5047560;28;20059;-65
2024/01/28 00:26:16;;;;;;;45.40;20.63;;;;;;;;;;5048026;28;20284;-64
2024/01/28 00:28:42;;;;;;;45.03;19.63;;;;;;;;;;5048319;28;20283;-65
2024/01/28 00:31:09;;;;;;;43.90;20.00;;;;;;;;;;5048241;28;20297;-65
2024/01/28 00:33:35;;;;;;;48.93;17.70;;;;;;;;;;5048319;28;20295;-64
2024/01/28 00:36:02;;;;;;;41.40;18.30;;;;;;;;;;5048076;28;20363;-64
2024/01/28 00:38:31;;;;;;;42.20;18.67;;;;;;;;;;5048222;28;20292;-65
2024/01/28 00:40:57;;;;;;;42.20;19.87;;;;;;;;;;5048338;28;20312;-65
2024/01/28 00:43:23;;;;;;;43.13;19.83;;;;;;;;;;5048514;28;20288;-64
2024/01/28 00:45:49;;;;;;;42.37;18.00;;;;;;;;;;5047910;28;20280;-65
2024/01/28 00:48:15;;;;;;;42.17;17.87;;;;;;;;;;5048063;28;20288;-65
2024/01/28 00:50:41;;;;;;;41.37;17.57;;;;;;;;;;5048537;28;20385;-64
2024/01/28 00:53:08;;;;;;;45.60;17.53;;;;;;;;;;5048297;28;20310;-64
2024/01/28 00:55:34;;;;;;;43.47;17.23;;;;;;;;;;5047805;28;20646;-64
2024/01/28 00:58:02;;;;;;;48.77;20.67;;;;;;;;;;5048066;28;20298;-64
2024/01/28 01:00:28;;;;;;;54.27;18.43;;;;;;;;;;5048224;28;20315;-64
2024/01/28 01:02:54;;;;;;;55.57;19.63;;;;;;;;;;5048129;28;20287;-64
2024/01/28 01:05:20;;;;;;;41.23;19.90;;;;;;;;;;5048276;28;20393;-64
2024/01/28 01:07:46;;;;;;;47.33;21.47;;;;;;;;;;5048108;28;21275;-64
2024/01/28 01:10:12;;;;;;;44.57;19.93;;;;;;;;;;5048036;28;20337;-64
2024/01/28 01:12:38;;;;;;;43.83;17.70;;;;;;;;;;5050116;28;20279;-64
2024/01/28 01:15:05;;;;;;;42.40;18.57;;;;;;;;;;5052377;28;20315;-64
2024/01/28 01:17:31;;;;;;;41.83;18.07;;;;;;;;;;5051577;28;20290;-64
2024/01/28 01:19:57;;;;;;;52.33;22.27;;;;;;;;;;5051659;28;20309;-64
2024/01/28 01:22:23;;;;;;;55.60;21.57;;;;;;;;;;5051807;28;20280;-64
2024/01/28 01:24:49;;;;;;;40.83;20.23;;;;;;;;;;5052035;28;20311;-64
2024/01/28 01:27:15;;;;;;;51.50;20.83;;;;;;;;;;5051710;28;20295;-65
2024/01/28 01:29:41;;;;;;;44.17;19.87;;;;;;;;;;5050767;28;20617;-64
2024/01/28 01:32:10;;;;;;;46.70;19.87;;;;;;;;;;5051313;28;20319;-64
2024/01/28 01:34:36;;;;;;;46.30;21.50;;;;;;;;;;5050029;28;20827;-65
2024/01/28 01:37:02;;;;;;;39.60;21.07;;;;;;;;;;5051400;28;20824;-64
2024/01/28 01:39:28;;;;;;;41.90;19.97;;;;;;;;;;5051559;28;20650;-64
2024/01/28 01:41:54;;;;;;;42.87;21.00;;;;;;;;;;5050661;28;20845;-64
2024/01/28 01:44:20;;;;;;;45.73;22.80;;;;;;;;;;5051184;28;20777;-64
2024/01/28 01:46:47;;;;;;;44.30;19.93;;;;;;;;;;5051183;28;20303;-64
2024/01/28 01:49:13;;;;;;;43.70;19.97;;;;;;;;;;5051004;28;20748;-64
2024/01/28 01:51:40;;;;;;;50.80;21.67;;;;;;;;;;5050783;28;20627;-64
2024/01/28 01:54:06;;;;;;;38.77;19.93;;;;;;;;;;5050956;28;20290;-64
2024/01/28 01:56:37;;;;;;;42.87;20.13;;;;;;;;;;5051080;28;20345;-64
2024/01/28 01:59:06;;;;;;;45.47;20.40;;;;;;;;;;5051205;28;20734;-65
2024/01/28 02:01:34;;;;;;;47.67;21.07;;;;;;;;;;5050714;28;20311;-64
2024/01/28 02:04:00;;;;;;;40.57;18.93;;;;;;;;;;5051156;28;20337;-64
2024/01/28 02:06:30;;;;;;;45.67;20.83;;;;;;;;;;5051074;28;20391;-65
2024/01/28 02:08:56;;;;;;;41.50;20.10;;;;;;;;;;5050787;28;20287;-64
2024/01/28 02:11:23;;;;;;;40.23;21.00;;;;;;;;;;5050923;28;20279;-64
2024/01/28 02:13:49;;;;;;;46.40;20.27;;;;;;;;;;5050873;28;20813;-65
2024/01/28 02:16:15;;;;;;;38.93;18.10;;;;;;;;;;5050553;28;20284;-65
2024/01/28 02:18:41;;;;;;;46.17;19.57;;;;;;;;;;5050785;28;20290;-64
2024/01/28 02:21:07;;;;;;;46.73;18.23;;;;;;;;;;5050595;28;20307;-64
2024/01/28 02:23:33;;;;;;;42.97;18.43;;;;;;;;;;5049268;28;20619;-64
2024/01/28 02:25:59;;;;;;;40.70;17.50;;;;;;;;;;5050635;28;20641;-65
2024/01/28 02:28:25;;;;;;;41.50;20.67;;;;;;;;;;5050217;28;21191;-65
2024/01/28 02:30:51;;;;;;;37.03;19.07;;;;;;;;;;5050657;28;20279;-65
2024/01/28 02:33:17;;;;;;;48.80;20.17;;;;;;;;;;5050206;28;20283;-64
2024/01/28 02:35:43;;;;;;;39.67;19.13;;;;;;;;;;5050613;28;20329;-64
2024/01/28 02:38:11;;;;;;;35.80;17.50;;;;;;;;;;5049894;28;20279;-64
2024/01/28 02:40:37;;;;;;;38.93;17.03;;;;;;;;;;5050422;28;20384;-64
2024/01/28 02:43:05;;;;;;;34.13;19.57;;;;;;;;;;5050500;28;20284;-64
2024/01/28 02:45:31;;;;;;;37.40;16.33;;;;;;;;;;5050475;28;20325;-64
2024/01/28 02:47:57;;;;;;;46.37;20.23;;;;;;;;;;5050111;28;20302;-64
2024/01/28 02:50:24;;;;;;;33.43;15.07;;;;;;;;;;5049433;28;20287;-64
2024/01/28 02:52:50;;;;;;;32.47;16.67;;;;;;;;;;5049942;28;20319;-64
2024/01/28 02:55:16;;;;;;;32.37;16.57;;;;;;;;;;5050081;28;20279;-64
2024/01/28 02:57:42;;;;;;;29.60;14.07;;;;;;;;;;5049964;28;20299;-64
2024/01/28 03:00:08;;;;;;;27.83;14.27;;;;;;;;;;5049594;28;20284;-64
2024/01/28 03:02:34;;;;;;;35.07;15.60;;;;;;;;;;5050019;28;20276;-64
2024/01/28 03:05:00;;;;;;;29.17;15.17;;;;;;;;;;5049793;28;20279;-64
2024/01/28 03:07:26;;;;;;;27.70;12.57;;;;;;;;;;5049741;28;20294;-64
2024/01/28 03:09:52;;;;;;;33.17;15.23;;;;;;;;;;5050035;28;20283;-64
2024/01/28 03:12:18;;;;;;;27.80;12.60;;;;;;;;;;5049843;28;20302;-64
2024/01/28 03:14:45;;;;;;;28.00;14.00;;;;;;;;;;5049357;28;20789;-64
2024/01/28 03:17:11;;;;;;;34.27;14.13;;;;;;;;;;5049620;28;20047;-64
2024/01/28 03:19:37;;;;;;;31.43;14.90;;;;;;;;;;5049747;28;20291;-64
2024/01/28 03:22:03;;;;;;;31.57;14.27;;;;;;;;;;5049170;28;20307;-64
2024/01/28 03:24:29;;;;;;;28.77;14.60;;;;;;;;;;5049298;28;20287;-64
2024/01/28 03:26:55;;;;;;;30.63;12.67;;;;;;;;;;5049846;28;20272;-64
2024/01/28 03:29:21;;;;;;;39.30;15.40;;;;;;;;;;5049382;28;20303;-64
2024/01/28 03:31:47;;;;;;;38.67;13.63;;;;;;;;;;5049111;28;20323;-64
2024/01/28 03:34:13;;;;;;;29.37;12.57;;;;;;;;;;5048935;28;20279;-64
2024/01/28 03:36:39;;;;;;;39.93;13.67;;;;;;;;;;5048860;28;20291;-64
2024/01/28 03:39:06;;;;;;;34.67;15.37;;;;;;;;;;5049077;28;20280;-64
2024/01/28 03:41:32;;;;;;;26.67;13.77;;;;;;;;;;5049243;28;20303;-64
2024/01/28 03:43:58;;;;;;;30.90;12.33;;;;;;;;;;5048320;28;20773;-64
2024/01/28 03:46:24;;;;;;;26.23;12.57;;;;;;;;;;5048668;28;20287;-64
2024/01/28 03:48:50;;;;;;;28.90;13.17;;;;;;;;;;5049173;28;20655;-64
2024/01/28 03:51:16;;;;;;;30.77;12.83;;;;;;;;;;5048722;28;20290;-64
2024/01/28 03:53:42;;;;;;;39.73;14.00;;;;;;;;;;5048605;28;20275;-64
2024/01/28 03:56:09;;;;;;;37.13;14.13;;;;;;;;;;5049092;28;20609;-65
2024/01/28 03:58:35;;;;;;;41.70;14.17;;;;;;;;;;5049100;28;20318;-64
2024/01/28 04:01:03;;;;;;;24.63;12.97;;;;;;;;;;5048686;28;20314;-64
2024/01/28 04:03:29;;;;;;;32.97;13.60;;;;;;;;;;5048732;28;20291;-64
2024/01/28 04:05:55;;;;;;;33.80;15.60;;;;;;;;;;5048876;28;20283;-64
2024/01/28 04:08:21;;;;;;;23.37;12.37;;;;;;;;;;5047204;28;20284;-64
2024/01/28 04:10:47;;;;;;;32.93;12.13;;;;;;;;;;5049117;28;20315;-64
2024/01/28 04:13:13;;;;;;;28.73;13.13;;;;;;;;;;5048676;28;20290;-64
2024/01/28 04:15:39;;;;;;;31.70;13.30;;;;;;;;;;5047697;28;21125;-64
2024/01/28 04:18:06;;;;;;;28.43;12.77;;;;;;;;;;5048594;28;20288;-64
2024/01/28 04:20:32;;;;;;;32.13;12.17;;;;;;;;;;5047921;28;20791;-64
2024/01/28 04:22:58;;;;;;;34.53;12.90;;;;;;;;;;5048804;28;20353;-65
2024/01/28 04:25:24;;;;;;;30.20;13.17;;;;;;;;;;5049088;28;20275;-64
2024/01/28 04:27:50;;;;;;;28.90;12.67;;;;;;;;;;5048692;28;20294;-64
2024/01/28 04:30:16;;;;;;;32.83;12.80;;;;;;;;;;5048386;28;20777;-64
2024/01/28 04:32:44;;;;;;;29.47;12.67;;;;;;;;;;5048589;28;20827;-65
2024/01/28 04:35:13;;;;;;;28.87;12.40;;;;;;;;;;5047846;28;20801;-65
2024/01/28 04:37:40;;;;;;;28.37;12.43;;;;;;;;;;5048803;28;20287;-64
2024/01/28 04:40:07;;;;;;;23.60;12.30;;;;;;;;;;5048656;28;20369;-65
2024/01/28 04:42:33;;;;;;;30.63;12.33;;;;;;;;;;5048148;28;20318;-64
2024/01/28 04:44:59;;;;;;;30.93;12.80;;;;;;;;;;5048144;28;20289;-64
2024/01/28 04:47:25;;;;;;;28.63;12.40;;;;;;;;;;5049638;28;20295;-64
2024/01/28 04:49:51;;;;;;;24.20;11.60;;;;;;;;;;5052613;28;20346;-64
2024/01/28 04:52:17;;;;;;;26.60;11.17;;;;;;;;;;5051307;28;20327;-64
2024/01/28 04:54:43;;;;;;;30.63;10.93;;;;;;;;;;5052163;28;20878;-64
2024/01/28 04:57:10;;;;;;;25.77;11.63;;;;;;;;;;5052547;28;20642;-65
2024/01/28 04:59:36;;;;;;;25.93;12.47;;;;;;;;;;5052640;28;20294;-64
2024/01/28 05:02:02;;;;;;;31.30;11.80;;;;;;;;;;5050633;28;20817;-65
2024/01/28 05:04:28;;;;;;;27.73;11.97;;;;;;;;;;5052190;28;20284;-65
2024/01/28 05:06:54;;;;;;;21.20;10.50;;;;;;;;;;5051822;28;20283;-65
2024/01/28 05:09:21;;;;;;;23.43;10.70;;;;;;;;;;5052166;28;20284;-65
2024/01/28 05:11:47;;;;;;;24.67;10.63;;;;;;;;;;5051874;28;20363;-64
2024/01/28 05:14:14;;;;;;;28.83;10.77;;;;;;;;;;5052001;28;20295;-64
2024/01/28 05:16:41;;;;;;;23.67;11.00;;;;;;;;;;5052080;28;20698;-65
2024/01/28 05:19:08;;;;;;;31.57;12.17;;;;;;;;;;5051702;28;20284;-64
2024/01/28 05:21:34;;;;;;;28.37;10.17;;;;;;;;;;5051466;28;20738;-64
2024/01/28 05:24:00;;;;;;;27.50;10.70;;;;;;;;;;5052084;28;20276;-64
2024/01/28 05:26:26;;;;;;;28.93;11.43;;;;;;;;;;5051790;28;20310;-64
2024/01/28 05:28:54;;;;;;;24.37;10.23;;;;;;;;;;5051743;28;20402;-64
2024/01/28 05:31:20;;;;;;;23.40;10.73;;;;;;;;;;5050296;28;20284;-65
2024/01/28 05:33:47;;;;;;;26.27;10.43;;;;;;;;;;5050894;28;20284;-64
2024/01/28 05:36:14;;;;;;;21.10;10.57;;;;;;;;;;5051480;28;20283;-65
2024/01/28 05:38:40;;;;;;;23.83;9.77;;;;;;;;;;5051745;28;20294;-65
2024/01/28 05:41:07;;;;;;;23.17;9.57;;;;;;;;;;5051363;28;20812;-65
2024/01/28 05:43:33;;;;;;;20.33;9.73;;;;;;;;;;5051714;28;20283;-64
2024/01/28 05:46:00;;;;;;;24.63;9.10;;;;;;;;;;5050912;28;20781;-65
2024/01/28 05:48:26;;;;;;;32.40;11.33;;;;;;;;;;5051007;28;20292;-64
2024/01/28 05:50:52;;;;;;;19.77;9.27;;;;;;;;;;5051528;28;20543;-64
2024/01/28 05:53:19;;;;;;;24.57;9.70;;;;;;;;;;5050820;28;20317;-64
2024/01/28 05:55:45;;;;;;;17.47;9.37;;;;;;;;;;5050747;28;20290;-65
2024/01/28 05:58:11;;;;;;;21.63;9.40;;;;;;;;;;5050879;28;20286;-65
2024/01/28 06:00:37;;;;;;;24.97;9.33;;;;;;;;;;5050753;28;20307;-64
2024/01/28 06:03:05;;;;;;;21.83;8.40;;;;;;;;;;5050918;28;20290;-64
2024/01/28 06:05:31;;;;;;;20.60;8.80;;;;;;;;;;5051293;28;20280;-65
2024/01/28 06:07:57;;;;;;;24.47;8.80;;;;;;;;;;5051286;28;20279;-65
2024/01/28 06:10:23;;;;;;;18.63;9.07;;;;;;;;;;5050377;28;20295;-64
2024/01/28 06:12:49;;;;;;;19.80;9.87;;;;;;;;;;5051095;28;20287;-65
2024/01/28 06:15:15;;;;;;;23.20;8.30;;;;;;;;;;5050797;28;20272;-65
2024/01/28 06:17:41;;;;;;;17.07;7.87;;;;;;;;;;5050722;28;20295;-65
2024/01/28 06:20:08;;;;;;;14.20;7.63;;;;;;;;;;5050194;28;20280;-65
2024/01/28 06:22:34;;;;;;;19.83;7.97;;;;;;;;;;5050981;28;20307;-65
2024/01/28 06:25:00;;;;;;;25.40;8.40;;;;;;;;;;5050466;28;20837;-65
2024/01/28 06:27:27;;;;;;;23.47;8.80;;;;;;;;;;5050654;28;20379;-65
2024/01/28 06:29:53;;;;;;;30.10;11.13;;;;;;;;;;5050650;28;20834;-65
2024/01/28 06:32:21;;;;;;;23.90;10.57;;;;;;;;;;5049913;28;20322;-65
2024/01/28 06:34:47;;;;;;;19.63;8.07;;;;;;;;;;5050988;28;20395;-65
2024/01/28 06:37:13;;;;;;;20.47;7.70;;;;;;;;;;5050326;28;20309;-64
2024/01/28 06:39:39;;;;;;;24.60;8.77;;;;;;;;;;5050099;28;20290;-65
2024/01/28 06:42:05;;;;;;;21.03;8.67;;;;;;;;;;5050078;28;20322;-64
2024/01/28 06:44:36;;;;;;;26.17;9.43;;;;;;;;;;5049968;28;20282;-64
2024/01/28 06:47:03;;;;;;;21.03;9.97;;;;;;;;;;5048556;28;20374;-64
2024/01/28 06:49:29;;;;;;;23.30;8.70;;;;;;;;;;5050165;28;20641;-64
2024/01/28 06:51:55;;;;;;;22.07;9.73;;;;;;;;;;5049828;28;20416;-64
2024/01/28 06:54:21;;;;;;;21.80;9.13;;;;;;;;;;5049934;28;20294;-64
2024/01/28 06:56:50;;;;;;;21.20;8.73;;;;;;;;;;5048845;28;20292;-64
2024/01/28 06:59:18;;;;;;;19.93;8.83;;;;;;;;;;5049914;28;20291;-64
2024/01/28 07:01:45;;;;;;;23.13;9.17;;;;;;;;;;5050315;28;20349;-64
2024/01/28 07:04:11;;;;;;;21.33;10.30;;;;;;;;;;5049853;28;20333;-65
2024/01/28 07:06:37;;;;;;;18.33;9.37;;;;;;;;;;5048332;28;20657;-65
2024/01/28 07:09:03;;;;;;;23.87;9.23;;;;;;;;;;5048375;28;20563;-65
2024/01/28 07:11:29;;;;;;;20.77;10.67;;;;;;;;;;5049426;28;20353;-64
2024/01/28 07:13:55;;;;;;;22.90;9.63;;;;;;;;;;5049825;28;20357;-64
2024/01/28 07:16:21;;;;;;;19.33;9.60;;;;;;;;;;5049966;28;20295;-65
2024/01/28 07:18:49;;;;;;;20.40;9.57;;;;;;;;;;5049502;28;20287;-64
2024/01/28 07:21:16;;;;;;;24.97;9.80;;;;;;;;;;5047896;28;20398;-65
2024/01/28 07:23:42;;;;;;;28.33;12.33;;;;;;;;;;5048581;28;20295;-65
2024/01/28 07:26:09;;;;;;;20.70;9.47;;;;;;;;;;5049065;28;20287;-65
2024/01/28 07:28:35;;;;;;;21.57;11.57;;;;;;;;;;5047964;28;20843;-65
2024/01/28 07:31:01;;;;;;;25.47;10.57;;;;;;;;;;5049397;28;20279;-65
2024/01/28 07:33:27;;;;;;;27.70;10.13;;;;;;;;;;5048666;28;20625;-65
2024/01/28 07:35:53;;;;;;;22.23;9.67;;;;;;;;;;5049475;28;20800;-65
2024/01/28 07:38:19;;;;;;;21.63;10.57;;;;;;;;;;5049008;28;20853;-65
2024/01/28 07:40:45;;;;;;;24.07;9.87;;;;;;;;;;5048731;28;20724;-65
2024/01/28 07:43:12;;;;;;;27.47;10.20;;;;;;;;;;5048434;28;20280;-64
2024/01/28 07:45:38;;;;;;;22.00;9.47;;;;;;;;;;5049074;28;20279;-65
2024/01/28 07:48:04;;;;;;;19.20;9.20;;;;;;;;;;5048292;28;20528;-64
2024/01/28 07:50:30;;;;;;;23.23;9.63;;;;;;;;;;5048448;28;20292;-64
2024/01/28 07:52:56;;;;;;;19.27;8.97;;;;;;;;;;5048943;28;20284;-64
2024/01/28 07:55:22;;;;;;;21.43;9.67;;;;;;;;;;5048592;28;20284;-65
2024/01/28 07:57:48;;;;;;;18.63;9.70;;;;;;;;;;5048918;28;20365;-65
2024/01/28 08:00:15;;;;;;;21.67;8.90;;;;;;;;;;5048430;28;20290;-65
2024/01/28 08:02:41;;;;;;;17.20;8.77;;;;;;;;;;5048865;28;20341;-65
2024/01/28 08:05:08;;;;;;;33.77;12.03;;;;;;;;;;5047013;28;20291;-65
2024/01/28 08:07:34;;;;;;;19.97;9.80;;;;;;;;;;5048711;28;20288;-65
2024/01/28 08:10:01;;;;;;;12.60;9.10;;;;;;;;;;5048434;28;20283;-65
2024/01/28 08:12:27;;;;;;;19.10;9.17;;;;;;;;;;5048902;28;20283;-65
2024/01/28 08:14:53;;;;;;;15.97;8.93;;;;;;;;;;5048599;28;20382;-65
2024/01/28 08:17:19;;;;;;;20.40;8.70;;;;;;;;;;5048392;28;20279;-65
2024/01/28 08:19:45;;;;;;;20.53;9.00;;;;;;;;;;5048730;28;20283;-65
2024/01/28 08:22:12;;;;;;;19.77;8.90;;;;;;;;;;5048494;28;20315;-65
2024/01/28 08:24:38;;;;;;;19.53;8.57;;;;;;;;;;5048392;28;20280;-65
2024/01/28 08:27:04;;;;;;;13.93;9.17;;;;;;;;;;5047674;28;21052;-65
2024/01/28 08:29:30;;;;;;;20.20;8.50;;;;;;;;;;5048669;28;20280;-65
2024/01/28 08:31:59;;;;;;;14.33;7.10;;;;;;;;;;5048797;28;20708;-65
2024/01/28 08:34:25;;;;;;;14.10;7.80;;;;;;;;;;5046958;28;20793;-65
2024/01/28 08:36:51;;;;;;;19.27;7.17;;;;;;;;;;5048211;28;20283;-65
2024/01/28 08:39:17;;;;;;;17.70;7.07;;;;;;;;;;5048027;28;20773;-64
2024/01/28 08:41:46;;;;;;;17.53;5.73;;;;;;;;;;5030092;28;20334;-64
2024/01/28 08:44:12;;;;;;;18.57;6.60;;;;;;;;;;5048161;28;20677;-64
2024/01/28 08:46:39;;;;;;;12.40;6.30;;;;;;;;;;5048311;28;20291;-64
2024/01/28 08:49:05;;;;;;;19.40;7.23;;;;;;;;;;5048241;28;20340;-64
2024/01/28 08:51:31;;;;;;;13.73;5.63;;;;;;;;;;5046807;28;20349;-64
2024/01/28 08:53:58;;;;;;;19.00;6.97;;;;;;;;;;5048161;28;20279;-64
2024/01/28 08:56:24;;;;;;;12.13;7.07;;;;;;;;;;5048079;28;20272;-64
2024/01/28 08:58:50;;;;;;;18.50;6.97;;;;;;;;;;5047963;28;20276;-64
2024/01/28 09:01:16;;;;;;;15.47;7.33;;;;;;;;;;5047379;28;20303;-64
2024/01/28 09:03:42;;;;;;;14.47;5.70;;;;;;;;;;5048623;28;20283;-64
2024/01/28 09:06:08;;;;;;;15.07;5.53;;;;;;;;;;5048132;28;20935;-64
2024/01/28 09:08:34;;;;;;;17.50;5.90;;;;;;;;;;5048041;28;20316;-64
2024/01/28 09:11:00;;;;;;;13.87;5.40;;;;;;;;;;5047953;28;20295;-64
2024/01/28 09:13:27;;;;;;;14.27;4.67;;;;;;;;;;5047593;28;20427;-64
2024/01/28 09:15:53;;;;;;;12.20;4.90;;;;;;;;;;5047700;28;20318;-64
2024/01/28 09:18:19;;;;;;;13.40;6.80;;;;;;;;;;5047876;28;20057;-64
2024/01/28 09:20:45;;;;;;;16.97;6.43;;;;;;;;;;5048099;28;20311;-64
2024/01/28 09:23:11;;;;;;;13.27;5.67;;;;;;;;;;5047627;28;20280;-64
2024/01/28 09:25:37;;;;;;;10.53;5.50;;;;;;;;;;5047934;28;20275;-64
2024/01/28 09:28:04;;;;;;;9.90;5.60;;;;;;;;;;5047487;28;20279;-64
2024/01/28 09:30:30;;;;;;;14.27;5.13;;;;;;;;;;5047725;28;20283;-64
2024/01/28 09:32:56;;;;;;;18.93;6.67;;;;;;;;;;5048659;28;20288;-64
2024/01/28 09:35:22;;;;;;;13.00;5.33;;;;;;;;;;5051972;28;20392;-64
2024/01/28 09:37:48;;;;;;;11.83;4.67;;;;;;;;;;5050972;28;20290;-64
2024/01/28 09:40:15;;;;;;;12.73;4.90;;;;;;;;;;5051009;28;20391;-64
2024/01/28 09:42:47;;;;;;;19.43;4.53;;;;;;;;;;5051583;28;20396;-64
2024/01/28 09:45:13;;;;;;;14.30;4.80;;;;;;;;;;5051177;28;20103;-64
2024/01/28 09:47:40;;;;;;;11.90;4.73;;;;;;;;;;5049807;28;20557;-64
2024/01/28 09:50:09;;;;;;;11.80;4.80;;;;;;;;;;5050342;28;20053;-63
2024/01/28 09:52:35;;;;;;;9.40;5.30;;;;;;;;;;5051181;28;20057;-64
2024/01/28 09:55:04;;;;;;;8.33;4.53;;;;;;;;;;5050979;28;20398;-64
2024/01/28 09:57:30;;;;;;;15.00;4.70;;;;;;;;;;5051126;28;20041;-64
2024/01/28 09:59:56;;;;;;;13.43;4.23;;;;;;;;;;5051252;28;20095;-64
2024/01/28 10:02:22;;;;;;;10.87;4.30;;;;;;;;;;5050361;28;20503;-64
2024/01/28 10:04:49;;;;;;;9.63;4.17;;;;;;;;;;5051112;28;20048;-64
2024/01/28 10:07:17;;;;;;;11.23;3.40;;;;;;;;;;5051035;28;21482;-64
2024/01/28 10:09:45;;;;;;;10.00;3.50;;;;;;;;;;5050719;28;20424;-64
2024/01/28 10:12:11;;;;;;;11.27;3.60;;;;;;;;;;5051091;28;20387;-63
2024/01/28 10:14:37;;;;;;;9.23;4.03;;;;;;;;;;5050905;28;20045;-63
2024/01/28 10:17:03;;;;;;;12.20;3.90;;;;;;;;;;5050043;28;20477;-63
2024/01/28 10:19:29;;;;;;;9.10;3.77;;;;;;;;;;5050891;28;20094;-64
2024/01/28 10:21:56;;;;;;;11.70;3.50;;;;;;;;;;5050799;28;20056;-64
2024/01/28 10:24:23;;;;;;;11.23;3.77;;;;;;;;;;5050276;28;20079;-64
2024/01/28 10:26:49;;;;;;;8.00;4.03;;;;;;;;;;5050018;28;20041;-64
2024/01/28 10:29:15;;;;;;;11.07;3.97;;;;;;;;;;5050862;28;20048;-64
2024/01/28 10:31:41;;;;;;;7.60;3.37;;;;;;;;;;5050220;28;20084;-64
2024/01/28 10:34:08;;;;;;;8.83;3.70;;;;;;;;;;5048934;28;20048;-64
2024/01/28 10:36:36;;;;;;;7.47;3.33;;;;;;;;;;5050588;28;20055;-64
2024/01/28 10:39:03;;;;;;;10.40;3.83;;;;;;;;;;5049956;28;20447;-64
2024/01/28 10:41:30;;;;;;;7.03;4.53;;;;;;;;;;5049877;28;20048;-63
2024/01/28 10:43:57;;;;;;;8.93;3.00;;;;;;;;;;5048753;28;20053;-64
2024/01/28 10:46:28;;;;;;;12.27;3.50;;;;;;;;;;5047962;28;20106;-64
2024/01/28 10:48:57;;;;;;;7.23;2.63;;;;;;;;;;5050370;28;20092;-64
2024/01/28 10:51:23;;;;;;;8.53;2.93;;;;;;;;;;5049673;28;20076;-63
2024/01/28 10:53:51;;;;;;;10.57;3.50;;;;;;;;;;5049850;28;20041;-64
2024/01/28 10:56:18;;;;;;;8.60;3.37;;;;;;;;;;5049637;28;20458;-63
2024/01/28 10:58:44;;;;;;;6.83;2.90;;;;;;;;;;5049953;28;20094;-63
2024/01/28 11:01:11;;;;;;;8.23;3.03;;;;;;;;;;5049680;28;20056;-63
2024/01/28 11:03:37;;;;;;;7.70;2.90;;;;;;;;;;5049474;28;20125;-63
2024/01/28 11:06:03;;;;;;;8.23;3.00;;;;;;;;;;5049813;28;20045;-64
2024/01/28 11:08:30;;;;;;;6.43;2.83;;;;;;;;;;5050210;28;20111;-63
2024/01/28 11:10:56;;;;;;;10.37;3.40;;;;;;;;;;5049961;28;20747;-63
2024/01/28 11:13:23;;;;;;;8.17;3.47;;;;;;;;;;5049575;28;20091;-63
2024/01/28 11:15:49;;;;;;;9.27;3.13;;;;;;;;;;5049557;28;20095;-63
2024/01/28 11:18:16;;;;;;;9.90;3.00;;;;;;;;;;5049623;28;20558;-63
2024/01/28 11:20:42;;;;;;;9.13;3.90;;;;;;;;;;5049644;28;20095;-63
2024/01/28 11:23:17;;;;;;;8.20;3.37;;;;;;;;;;5049276;28;20048;-64
2024/01/28 11:25:43;;;;;;;9.17;3.23;;;;;;;;;;5049520;28;20056;-63
2024/01/28 11:28:09;;;;;;;6.70;2.77;;;;;;;;;;5049176;28;20068;-64
2024/01/28 11:30:35;;;;;;;6.57;2.63;;;;;;;;;;5049090;28;20479;-63
2024/01/28 11:33:09;;;;;;;6.50;2.67;;;;;;;;;;5049137;28;20126;-64
2024/01/28 11:35:35;;;;;;;6.50;3.33;;;;;;;;;;5049336;28;20103;-63
2024/01/28 11:38:05;;;;;;;8.73;3.10;;;;;;;;;;5048788;28;20045;-63
2024/01/28 11:40:35;;;;;;;7.67;3.03;;;;;;;;;;5049084;28;20473;-63
2024/01/28 11:43:01;;;;;;;7.70;2.63;;;;;;;;;;5048746;28;20047;-63
2024/01/28 11:45:27;;;;;;;6.30;2.60;;;;;;;;;;5049093;28;20487;-64
2024/01/28 11:47:53;;;;;;;6.67;2.73;;;;;;;;;;5048456;28;20521;-63
2024/01/28 11:50:19;;;;;;;7.23;2.90;;;;;;;;;;5048546;28;20045;-63
2024/01/28 11:52:45;;;;;;;5.73;2.50;;;;;;;;;;5048924;28;20110;-63
2024/01/28 11:55:15;;;;;;;8.53;2.87;;;;;;;;;;5048905;28;20060;-63
2024/01/28 11:57:41;;;;;;;7.77;3.10;;;;;;;;;;5048402;28;20649;-63
2024/01/28 12:00:10;;;;;;;7.83;2.73;;;;;;;;;;5048919;28;20499;-63
2024/01/28 12:02:37;;;;;;;6.83;2.70;;;;;;;;;;5048320;28;20052;-63
2024/01/28 12:05:03;;;;;;;6.33;2.43;;;;;;;;;;5048760;28;20053;-63
2024/01/28 12:07:33;;;;;;;8.43;2.63;;;;;;;;;;5048960;28;20056;-63
2024/01/28 12:10:00;;;;;;;8.00;3.00;;;;;;;;;;5048657;28;20056;-63
2024/01/28 12:12:27;;;;;;;7.73;3.23;;;;;;;;;;5048370;28;20473;-64
2024/01/28 12:14:53;;;;;;;6.40;2.63;;;;;;;;;;5048576;28;20072;-63
2024/01/28 12:17:19;;;;;;;8.93;3.47;;;;;;;;;;5048294;28;20037;-63
2024/01/28 12:19:45;;;;;;;6.00;2.77;;;;;;;;;;5048578;28;20049;-63
2024/01/28 12:22:11;;;;;;;6.53;2.53;;;;;;;;;;5048493;28;20051;-63
2024/01/28 12:24:44;;;;;;;6.63;2.40;;;;;;;;;;5048483;28;20479;-63
2024/01/28 12:27:10;;;;;;;5.22;2.45;;;;;;;;;;5048480;28;20041;-64
2024/01/28 12:29:36;;;;;;;6.67;2.40;;;;;;;;;;5048814;28;20674;-64
2024/01/28 12:32:02;;;;;;;4.67;2.50;;;;;;;;;;5047808;28;20041;-64
2024/01/28 12:34:28;;;;;;;5.90;2.57;;;;;;;;;;5048244;28;20462;-63
2024/01/28 12:36:54;;;;;;;5.47;2.10;;;;;;;;;;5048154;28;20178;-63
2024/01/28 12:39:20;;;;;;;7.10;2.50;;;;;;;;;;5048197;28;20037;-63
2024/01/28 12:41:46;;;;;;;6.63;2.23;;;;;;;;;;5048467;28;20064;-63
2024/01/28 12:44:12;;;;;;;4.27;2.07;;;;;;;;;;5047916;28;20091;-63
2024/01/28 12:46:38;;;;;;;6.20;2.27;;;;;;;;;;5047797;28;20178;-63
2024/01/28 12:49:04;;;;;;;6.53;2.10;;;;;;;;;;5048077;28;20198;-63
2024/01/28 12:51:30;;;;;;;4.50;2.30;;;;;;;;;;5048272;28;20068;-63
2024/01/28 12:53:56;;;;;;;5.97;2.57;;;;;;;;;;5048023;28;20529;-63
2024/01/28 12:56:23;;;;;;;6.07;2.13;;;;;;;;;;5048279;28;20055;-64
2024/01/28 12:58:49;;;;;;;5.73;2.00;;;;;;;;;;5047726;28;20049;-63
2024/01/28 13:01:15;;;;;;;6.47;2.37;;;;;;;;;;5047938;28;20045;-64
2024/01/28 13:03:41;;;;;;;5.17;2.73;;;;;;;;;;5048253;28;20415;-63
2024/01/28 13:06:08;;;;;;;6.80;2.43;;;;;;;;;;5047595;28;20037;-64
2024/01/28 13:08:34;;;;;;;5.53;2.30;;;;;;;;;;5049960;28;20048;-64
2024/01/28 13:11:02;;;;;;;9.00;2.30;;;;;;;;;;5052536;28;20132;-64
2024/01/28 13:13:31;;;;;;;4.47;2.13;;;;;;;;;;5051839;28;20383;-64
2024/01/28 13:15:57;;;;;;;5.80;2.50;;;;;;;;;;5051897;28;20496;-63
2024/01/28 13:18:23;;;;;;;6.30;2.20;;;;;;;;;;5051735;28;20045;-64
2024/01/28 13:20:49;;;;;;;5.07;1.80;;;;;;;;;;5051342;28;20041;-64
2024/01/28 13:23:15;;;;;;;5.07;2.60;;;;;;;;;;5051823;28;20495;-64
2024/01/28 13:25:41;;;;;;;3.70;1.87;;;;;;;;;;5051850;28;20048;-64
2024/01/28 13:28:08;;;;;;;7.13;3.10;;;;;;;;;;5051281;28;20049;-64
2024/01/28 13:30:34;;;;;;;4.57;1.90;;;;;;;;;;5051303;28;20084;-64
2024/01/28 13:33:00;;;;;;;6.60;2.17;;;;;;;;;;5051452;28;20076;-64
2024/01/28 13:35:26;;;;;;;6.27;2.03;;;;;;;;;;5049706;28;20079;-64
2024/01/28 13:37:52;;;;;;;4.50;2.00;;;;;;;;;;5051273;28;20048;-64
2024/01/28 13:40:18;;;;;;;4.57;2.17;;;;;;;;;;5051258;28;20041;-64
2024/01/28 13:42:44;;;;;;;5.03;1.80;;;;;;;;;;5051030;28;20081;-64
2024/01/28 13:45:13;;;;;;;7.47;2.70;;;;;;;;;;5051197;28;20076;-64
2024/01/28 13:47:41;;;;;;;6.17;2.00;;;;;;;;;;5050996;28;20057;-64
2024/01/28 13:50:07;;;;;;;5.80;2.80;;;;;;;;;;5050579;28;20059;-64
2024/01/28 13:52:34;;;;;;;6.47;1.90;;;;;;;;;;5051237;28;20438;-64
2024/01/28 13:55:00;;;;;;;6.17;1.93;;;;;;;;;;5050792;28;20037;-64
2024/01/28 13:57:26;;;;;;;6.53;2.60;;;;;;;;;;5050819;28;20056;-64
2024/01/28 13:59:52;;;;;;;4.43;2.00;;;;;;;;;;5050931;28;20037;-64
2024/01/28 14:02:18;;;;;;;6.17;2.17;;;;;;;;;;5051167;28;20049;-64
2024/01/28 14:04:44;;;;;;;7.13;2.10;;;;;;;;;;5051089;28;20045;-64
2024/01/28 14:07:10;;;;;;;7.10;2.50;;;;;;;;;;5050938;28;20512;-64
2024/01/28 14:09:37;;;;;;;5.10;2.00;;;;;;;;;;5050857;28;20534;-64
2024/01/28 14:12:03;;;;;;;4.87;1.97;;;;;;;;;;5050282;28;20098;-64
2024/01/28 14:14:29;;;;;;;8.20;2.20;;;;;;;;;;5050778;28;20052;-64
2024/01/28 14:16:55;;;;;;;8.10;2.00;;;;;;;;;;5050886;28;20139;-64
2024/01/28 14:19:21;;;;;;;4.27;1.90;;;;;;;;;;5050582;28;20079;-64
2024/01/28 14:21:47;;;;;;;7.60;3.43;;;;;;;;;;5050918;28;20110;-64
2024/01/28 14:24:13;;;;;;;3.67;1.70;;;;;;;;;;5050278;28;20446;-64